52VA weather

Ibm Building 250 Heliport
Manassas, Virginia, United States

Public forecast

Using degrees Fahrenheit for public forecast. Weather courtesy of forecast.io.

Closest aviation weather report (METAR) to Ibm Building 250 Heliport

Closest report is Manassas Regional Airport/Harry P. Davis Field, 2.3 nm (4.3 km) S. Retrieved 2020/02/18 17:56 UTC (41 minutes ago):

KHEF 181756Z 20012G17KT 10SM CLR 14/04 A3008 RMK AO2 SLP194 T01440044 10150 20033 58043

Closest aviation forecast (TAF) to Ibm Building 250 Heliport

Closest forecast is Washington Dulles International Airport, 11.3 nm (21.0 km) NNE. Retrieved 2020/02/18 18:42 UTC (0 seconds ago):

TAF KIAD 181741Z 1818/1924 18011G18KT P6SM SCT080 BKN250 FM182100 20008KT P6SM BKN050 FM182300 22006KT P6SM -RA OVC035 FM190000 22004KT P6SM -RA OVC030 FM190300 29004KT 6SM -RA BR BKN025 OVC035 FM190500 32010G18KT P6SM -RA SCT030 OVC050 FM190700 33014G25KT P6SM BKN070 FM191600 32011G18KT P6SM SCT250